sensor_id;sensor_type;location;lat;lon;timestamp;pressure;altitude;pressure_sealevel;temperature;humidity
53246;BME280;39569;51.090;-1.786;2022-12-31T00:01:50;99110.28;;;32.78;37.33
53246;BME280;39569;51.090;-1.786;2022-12-31T00:04:17;99105.75;;;32.70;37.29
53246;BME280;39569;51.090;-1.786;2022-12-31T00:06:44;99113.06;;;32.78;36.89
53246;BME280;39569;51.090;-1.786;2022-12-31T00:09:11;99113.72;;;32.56;37.85
53246;BME280;39569;51.090;-1.786;2022-12-31T00:11:39;99087.28;;;32.59;37.25
53246;BME280;39569;51.090;-1.786;2022-12-31T00:14:06;99087.66;;;32.57;37.47
53246;BME280;39569;51.090;-1.786;2022-12-31T00:16:35;99090.41;;;32.42;37.51
53246;BME280;39569;51.090;-1.786;2022-12-31T00:19:04;99085.97;;;32.37;38.13
53246;BME280;39569;51.090;-1.786;2022-12-31T00:21:32;99091.50;;;32.37;37.80
53246;BME280;39569;51.090;-1.786;2022-12-31T00:23:59;99094.53;;;32.32;37.46
53246;BME280;39569;51.090;-1.786;2022-12-31T00:26:29;99067.59;;;32.29;37.77
53246;BME280;39569;51.090;-1.786;2022-12-31T00:28:59;99057.88;;;32.20;38.00
53246;BME280;39569;51.090;-1.786;2022-12-31T00:31:31;99068.22;;;32.23;37.57
53246;BME280;39569;51.090;-1.786;2022-12-31T00:33:58;99066.63;;;32.06;37.54
53246;BME280;39569;51.090;-1.786;2022-12-31T00:36:27;99066.63;;;32.06;38.42
53246;BME280;39569;51.090;-1.786;2022-12-31T00:38:55;99066.00;;;31.97;37.78
53246;BME280;39569;51.090;-1.786;2022-12-31T00:41:23;99074.84;;;32.03;37.88
53246;BME280;39569;51.090;-1.786;2022-12-31T00:43:50;99078.94;;;31.93;37.87
53246;BME280;39569;51.090;-1.786;2022-12-31T00:46:19;99090.34;;;31.92;38.66
53246;BME280;39569;51.090;-1.786;2022-12-31T00:48:46;99104.00;;;31.88;38.26
53246;BME280;39569;51.090;-1.786;2022-12-31T00:51:15;99110.97;;;31.82;38.19
53246;BME280;39569;51.090;-1.786;2022-12-31T00:53:42;99099.09;;;31.81;38.07
53246;BME280;39569;51.090;-1.786;2022-12-31T00:56:11;99095.09;;;31.79;38.29
53246;BME280;39569;51.090;-1.786;2022-12-31T00:58:39;99093.03;;;31.76;37.92
53246;BME280;39569;51.090;-1.786;2022-12-31T01:01:09;99105.00;;;31.80;37.99
53246;BME280;39569;51.090;-1.786;2022-12-31T01:03:38;99100.28;;;31.80;38.05
53246;BME280;39569;51.090;-1.786;2022-12-31T01:06:05;99096.50;;;31.73;38.37
53246;BME280;39569;51.090;-1.786;2022-12-31T01:08:32;99098.97;;;31.62;38.03
53246;BME280;39569;51.090;-1.786;2022-12-31T01:11:00;99088.53;;;31.56;38.34
53246;BME280;39569;51.090;-1.786;2022-12-31T01:13:48;99071.63;;;31.57;38.26
53246;BME280;39569;51.090;-1.786;2022-12-31T01:16:18;99083.13;;;31.59;38.53
53246;BME280;39569;51.090;-1.786;2022-12-31T01:18:47;99067.97;;;31.53;38.34
53246;BME280;39569;51.090;-1.786;2022-12-31T01:21:14;99066.47;;;31.56;38.36
53246;BME280;39569;51.090;-1.786;2022-12-31T01:23:42;99057.00;;;31.57;38.32
53246;BME280;39569;51.090;-1.786;2022-12-31T01:26:10;99047.59;;;31.58;38.24
53246;BME280;39569;51.090;-1.786;2022-12-31T01:28:38;99037.69;;;31.57;38.26
53246;BME280;39569;51.090;-1.786;2022-12-31T01:31:06;99038.13;;;31.59;38.09
53246;BME280;39569;51.090;-1.786;2022-12-31T01:33:33;99040.06;;;31.58;38.05
53246;BME280;39569;51.090;-1.786;2022-12-31T01:36:03;99043.91;;;31.54;37.64
53246;BME280;39569;51.090;-1.786;2022-12-31T01:38:30;99033.22;;;31.52;38.03
53246;BME280;39569;51.090;-1.786;2022-12-31T01:40:58;99041.44;;;31.49;37.99
53246;BME280;39569;51.090;-1.786;2022-12-31T01:43:43;99048.00;;;31.44;37.88
53246;BME280;39569;51.090;-1.786;2022-12-31T01:46:12;99045.03;;;31.37;38.12
53246;BME280;39569;51.090;-1.786;2022-12-31T01:48:47;99049.44;;;31.26;38.00
53246;BME280;39569;51.090;-1.786;2022-12-31T01:51:17;99040.53;;;31.33;37.49
53246;BME280;39569;51.090;-1.786;2022-12-31T01:53:45;99060.47;;;31.26;38.23
53246;BME280;39569;51.090;-1.786;2022-12-31T01:56:12;99066.81;;;31.27;37.59
53246;BME280;39569;51.090;-1.786;2022-12-31T01:58:41;99084.41;;;31.22;37.69
53246;BME280;39569;51.090;-1.786;2022-12-31T02:01:12;99081.19;;;31.20;38.20
53246;BME280;39569;51.090;-1.786;2022-12-31T02:03:43;99089.00;;;31.18;38.14
53246;BME280;39569;51.090;-1.786;2022-12-31T02:06:12;99087.41;;;31.17;37.63
53246;BME280;39569;51.090;-1.786;2022-12-31T02:08:42;99093.72;;;31.18;38.06
53246;BME280;39569;51.090;-1.786;2022-12-31T02:11:24;99092.47;;;31.15;37.44
53246;BME280;39569;51.090;-1.786;2022-12-31T02:13:53;99084.44;;;31.10;38.06
53246;BME280;39569;51.090;-1.786;2022-12-31T02:16:28;99078.13;;;31.10;37.44
53246;BME280;39569;51.090;-1.786;2022-12-31T02:19:06;99073.41;;;31.10;37.99
53246;BME280;39569;51.090;-1.786;2022-12-31T02:21:49;99072.97;;;31.08;37.42
53246;BME280;39569;51.090;-1.786;2022-12-31T02:24:36;99057.44;;;31.04;37.99
53246;BME280;39569;51.090;-1.786;2022-12-31T02:27:09;99060.91;;;31.01;37.58
53246;BME280;39569;51.090;-1.786;2022-12-31T02:30:04;99041.97;;;30.99;37.36
53246;BME280;39569;51.090;-1.786;2022-12-31T02:32:43;99036.00;;;30.97;37.31
53246;BME280;39569;51.090;-1.786;2022-12-31T02:35:17;99035.88;;;30.93;37.62
53246;BME280;39569;51.090;-1.786;2022-12-31T02:37:48;99033.91;;;30.94;37.59
53246;BME280;39569;51.090;-1.786;2022-12-31T02:40:19;99033.44;;;30.92;37.33
53246;BME280;39569;51.090;-1.786;2022-12-31T02:42:46;99028.50;;;30.98;37.14
53246;BME280;39569;51.090;-1.786;2022-12-31T02:45:18;99025.06;;;31.01;37.32
53246;BME280;39569;51.090;-1.786;2022-12-31T02:47:56;99021.47;;;31.00;37.69
53246;BME280;39569;51.090;-1.786;2022-12-31T02:50:37;99022.97;;;30.98;37.37
53246;BME280;39569;51.090;-1.786;2022-12-31T02:53:29;99013.81;;;30.93;37.36
53246;BME280;39569;51.090;-1.786;2022-12-31T02:56:03;98996.81;;;30.91;37.18
53246;BME280;39569;51.090;-1.786;2022-12-31T02:58:40;98994.28;;;30.86;37.32
53246;BME280;39569;51.090;-1.786;2022-12-31T03:01:33;98992.69;;;30.85;37.07
53246;BME280;39569;51.090;-1.786;2022-12-31T03:04:19;98990.03;;;30.89;37.08
53246;BME280;39569;51.090;-1.786;2022-12-31T03:07:02;98982.94;;;30.88;37.03
53246;BME280;39569;51.090;-1.786;2022-12-31T03:09:29;98979.56;;;30.94;36.80
53246;BME280;39569;51.090;-1.786;2022-12-31T03:11:56;98986.91;;;30.90;36.74
53246;BME280;39569;51.090;-1.786;2022-12-31T03:14:41;98974.28;;;30.89;36.93
53246;BME280;39569;51.090;-1.786;2022-12-31T03:17:09;98962.00;;;30.87;36.79
53246;BME280;39569;51.090;-1.786;2022-12-31T03:19:36;98971.31;;;30.82;36.76
53246;BME280;39569;51.090;-1.786;2022-12-31T03:22:20;98953.41;;;30.76;36.95
53246;BME280;39569;51.090;-1.786;2022-12-31T03:24:54;98964.78;;;30.75;36.97
53246;BME280;39569;51.090;-1.786;2022-12-31T03:27:38;98955.00;;;30.77;37.26
53246;BME280;39569;51.090;-1.786;2022-12-31T03:30:06;98953.75;;;30.75;36.97
53246;BME280;39569;51.090;-1.786;2022-12-31T03:32:34;98953.75;;;30.75;36.72
53246;BME280;39569;51.090;-1.786;2022-12-31T03:35:01;98953.97;;;30.70;37.23
53246;BME280;39569;51.090;-1.786;2022-12-31T03:37:28;98943.13;;;30.61;37.04
53246;BME280;39569;51.090;-1.786;2022-12-31T03:39:55;98945.25;;;30.68;36.83
53246;BME280;39569;51.090;-1.786;2022-12-31T03:42:22;98940.09;;;30.66;37.07
53246;BME280;39569;51.090;-1.786;2022-12-31T03:44:49;98939.78;;;30.56;37.28
53246;BME280;39569;51.090;-1.786;2022-12-31T03:47:15;98946.56;;;30.58;37.34
53246;BME280;39569;51.090;-1.786;2022-12-31T03:49:44;98947.34;;;30.59;36.84
53246;BME280;39569;51.090;-1.786;2022-12-31T03:52:10;98955.16;;;30.57;37.29
53246;BME280;39569;51.090;-1.786;2022-12-31T03:54:37;98971.81;;;30.60;36.67
53246;BME280;39569;51.090;-1.786;2022-12-31T03:57:04;98952.56;;;30.48;37.42
53246;BME280;39569;51.090;-1.786;2022-12-31T03:59:30;98955.06;;;30.53;36.77
53246;BME280;39569;51.090;-1.786;2022-12-31T04:01:57;98954.63;;;30.51;37.33
53246;BME280;39569;51.090;-1.786;2022-12-31T04:04:24;98959.09;;;30.44;37.20
53246;BME280;39569;51.090;-1.786;2022-12-31T04:06:52;98957.03;;;30.53;37.31
53246;BME280;39569;51.090;-1.786;2022-12-31T04:09:19;98951.06;;;30.51;36.90
53246;BME280;39569;51.090;-1.786;2022-12-31T04:11:45;98956.13;;;30.49;37.02
53246;BME280;39569;51.090;-1.786;2022-12-31T04:14:12;98949.34;;;30.46;37.05
53246;BME280;39569;51.090;-1.786;2022-12-31T04:16:41;98969.25;;;30.40;37.21
53246;BME280;39569;51.090;-1.786;2022-12-31T04:19:08;98965.47;;;30.32;37.59
53246;BME280;39569;51.090;-1.786;2022-12-31T04:21:35;98968.44;;;30.39;37.00
53246;BME280;39569;51.090;-1.786;2022-12-31T04:24:03;98962.56;;;30.41;36.76
53246;BME280;39569;51.090;-1.786;2022-12-31T04:26:31;98966.50;;;30.40;37.11
53246;BME280;39569;51.090;-1.786;2022-12-31T04:28:58;98975.19;;;30.42;37.31
53246;BME280;39569;51.090;-1.786;2022-12-31T04:31:25;98969.56;;;30.38;37.06
53246;BME280;39569;51.090;-1.786;2022-12-31T04:33:52;98983.03;;;30.40;36.61
53246;BME280;39569;51.090;-1.786;2022-12-31T04:36:19;98978.75;;;30.42;36.95
53246;BME280;39569;51.090;-1.786;2022-12-31T04:38:46;98979.34;;;30.36;37.00
53246;BME280;39569;51.090;-1.786;2022-12-31T04:41:14;98972.22;;;30.35;36.87
53246;BME280;39569;51.090;-1.786;2022-12-31T04:43:47;98988.75;;;30.35;36.92
53246;BME280;39569;51.090;-1.786;2022-12-31T04:46:15;98984.50;;;30.37;36.81
53246;BME280;39569;51.090;-1.786;2022-12-31T04:48:42;98983.34;;;30.38;36.46
53246;BME280;39569;51.090;-1.786;2022-12-31T04:51:09;98986.47;;;30.37;36.77
53246;BME280;39569;51.090;-1.786;2022-12-31T04:53:36;99006.09;;;30.35;36.96
53246;BME280;39569;51.090;-1.786;2022-12-31T04:56:04;98999.66;;;30.31;36.90
53246;BME280;39569;51.090;-1.786;2022-12-31T04:58:32;99005.88;;;30.28;36.84
53246;BME280;39569;51.090;-1.786;2022-12-31T05:00:59;99020.19;;;30.22;36.78
53246;BME280;39569;51.090;-1.786;2022-12-31T05:03:27;99008.19;;;30.26;37.24
53246;BME280;39569;51.090;-1.786;2022-12-31T05:05:59;99007.47;;;30.29;37.08
53246;BME280;39569;51.090;-1.786;2022-12-31T05:08:27;99015.59;;;30.26;37.01
53246;BME280;39569;51.090;-1.786;2022-12-31T05:10:53;99014.16;;;30.28;36.73
53246;BME280;39569;51.090;-1.786;2022-12-31T05:13:20;99034.06;;;30.25;36.89
53246;BME280;39569;51.090;-1.786;2022-12-31T05:15:49;99028.75;;;30.29;37.00
53246;BME280;39569;51.090;-1.786;2022-12-31T05:18:16;99026.06;;;30.20;36.96
53246;BME280;39569;51.090;-1.786;2022-12-31T05:20:43;99041.56;;;30.25;36.75
53246;BME280;39569;51.090;-1.786;2022-12-31T05:23:11;99029.28;;;30.10;37.17
53246;BME280;39569;51.090;-1.786;2022-12-31T05:25:38;99028.13;;;30.11;37.19
53246;BME280;39569;51.090;-1.786;2022-12-31T05:28:04;99033.75;;;30.15;36.67
53246;BME280;39569;51.090;-1.786;2022-12-31T05:30:31;99035.38;;;30.16;36.80
53246;BME280;39569;51.090;-1.786;2022-12-31T05:32:59;99060.94;;;30.16;36.80
53246;BME280;39569;51.090;-1.786;2022-12-31T05:35:26;99066.47;;;30.16;37.21
53246;BME280;39569;51.090;-1.786;2022-12-31T05:37:53;99062.78;;;30.12;36.88
53246;BME280;39569;51.090;-1.786;2022-12-31T05:40:20;99071.75;;;30.09;37.01
53246;BME280;39569;51.090;-1.786;2022-12-31T05:42:48;99063.25;;;30.14;37.17
53246;BME280;39569;51.090;-1.786;2022-12-31T05:45:15;99059.13;;;30.08;36.85
53246;BME280;39569;51.090;-1.786;2022-12-31T05:47:42;99053.94;;;30.07;36.88
53246;BME280;39569;51.090;-1.786;2022-12-31T05:50:13;99047.66;;;30.06;37.08
53246;BME280;39569;51.090;-1.786;2022-12-31T05:52:41;99050.88;;;30.08;36.49
53246;BME280;39569;51.090;-1.786;2022-12-31T05:55:08;99059.59;;;30.10;37.04
53246;BME280;39569;51.090;-1.786;2022-12-31T05:57:36;99061.75;;;30.17;36.75
53246;BME280;39569;51.090;-1.786;2022-12-31T06:00:04;99055.47;;;30.28;36.22
53246;BME280;39569;51.090;-1.786;2022-12-31T06:02:31;99062.44;;;30.26;36.48
53246;BME280;39569;51.090;-1.786;2022-12-31T06:04:58;99067.72;;;30.19;36.41
53246;BME280;39569;51.090;-1.786;2022-12-31T06:07:26;99073.59;;;30.17;36.87
53246;BME280;39569;51.090;-1.786;2022-12-31T06:09:53;99078.97;;;30.26;36.53
53246;BME280;39569;51.090;-1.786;2022-12-31T06:12:20;99075.34;;;30.34;36.46
53246;BME280;39569;51.090;-1.786;2022-12-31T06:14:46;99083.03;;;30.40;36.25
53246;BME280;39569;51.090;-1.786;2022-12-31T06:17:13;99076.34;;;30.53;35.62
53246;BME280;39569;51.090;-1.786;2022-12-31T06:19:40;99083.59;;;30.58;35.90
53246;BME280;39569;51.090;-1.786;2022-12-31T06:22:07;99095.88;;;30.48;36.17
53246;BME280;39569;51.090;-1.786;2022-12-31T06:24:35;99092.44;;;30.39;36.29
53246;BME280;39569;51.090;-1.786;2022-12-31T06:27:01;99106.31;;;30.31;36.35
53246;BME280;39569;51.090;-1.786;2022-12-31T06:29:28;99109.69;;;30.48;36.77
53246;BME280;39569;51.090;-1.786;2022-12-31T06:31:55;99106.69;;;30.65;36.88
53246;BME280;39569;51.090;-1.786;2022-12-31T06:34:22;99097.72;;;30.80;36.25
53246;BME280;39569;51.090;-1.786;2022-12-31T06:36:48;99100.09;;;30.94;36.21
53246;BME280;39569;51.090;-1.786;2022-12-31T06:39:15;99105.34;;;31.11;36.63
53246;BME280;39569;51.090;-1.786;2022-12-31T06:41:43;99110.50;;;31.25;36.60
53246;BME280;39569;51.090;-1.786;2022-12-31T06:44:10;99105.50;;;31.42;35.73
53246;BME280;39569;51.090;-1.786;2022-12-31T06:46:37;99107.41;;;31.54;36.33
53246;BME280;39569;51.090;-1.786;2022-12-31T06:49:03;99086.78;;;31.79;35.40
53246;BME280;39569;51.090;-1.786;2022-12-31T06:51:30;99120.00;;;31.95;35.95
53246;BME280;39569;51.090;-1.786;2022-12-31T06:53:57;99101.75;;;32.06;35.45
53246;BME280;39569;51.090;-1.786;2022-12-31T06:56:26;99110.84;;;32.22;35.74
53246;BME280;39569;51.090;-1.786;2022-12-31T06:58:55;99112.25;;;32.31;35.55
53246;BME280;39569;51.090;-1.786;2022-12-31T07:01:39;99117.03;;;32.46;35.12
53246;BME280;39569;51.090;-1.786;2022-12-31T07:04:31;99123.25;;;32.59;34.59
53246;BME280;39569;51.090;-1.786;2022-12-31T07:07:06;99133.25;;;32.63;35.06
53246;BME280;39569;51.090;-1.786;2022-12-31T07:09:39;99138.94;;;32.70;34.64
53246;BME280;39569;51.090;-1.786;2022-12-31T07:12:13;99143.13;;;32.80;34.67
53246;BME280;39569;51.090;-1.786;2022-12-31T07:14:50;99147.94;;;32.83;34.57
53246;BME280;39569;51.090;-1.786;2022-12-31T07:17:27;99144.25;;;32.79;34.58
53246;BME280;39569;51.090;-1.786;2022-12-31T07:20:00;99156.44;;;32.74;35.09
53246;BME280;39569;51.090;-1.786;2022-12-31T07:22:28;99165.09;;;32.73;34.77
53246;BME280;39569;51.090;-1.786;2022-12-31T07:24:56;99148.38;;;33.01;34.51
53246;BME280;39569;51.090;-1.786;2022-12-31T07:27:49;99158.84;;;32.60;34.99
53246;BME280;39569;51.090;-1.786;2022-12-31T07:30:21;99169.03;;;32.56;35.16
53246;BME280;39569;51.090;-1.786;2022-12-31T07:33:16;99179.38;;;32.59;35.07
53246;BME280;39569;51.090;-1.786;2022-12-31T07:35:49;99183.47;;;32.65;35.03
53246;BME280;39569;51.090;-1.786;2022-12-31T07:38:27;99182.03;;;32.71;34.71
53246;BME280;39569;51.090;-1.786;2022-12-31T07:41:05;99194.78;;;32.76;34.07
53246;BME280;39569;51.090;-1.786;2022-12-31T07:43:39;99203.53;;;32.78;34.54
53246;BME280;39569;51.090;-1.786;2022-12-31T07:46:14;99208.19;;;32.74;33.86
53246;BME280;39569;51.090;-1.786;2022-12-31T07:48:43;99207.72;;;32.72;34.20
53246;BME280;39569;51.090;-1.786;2022-12-31T07:51:10;99183.56;;;32.53;34.59
53246;BME280;39569;51.090;-1.786;2022-12-31T07:53:37;99191.41;;;32.51;34.48
53246;BME280;39569;51.090;-1.786;2022-12-31T07:56:05;99190.78;;;32.58;34.30
53246;BME280;39569;51.090;-1.786;2022-12-31T07:58:48;99203.91;;;32.61;34.94
53246;BME280;39569;51.090;-1.786;2022-12-31T08:01:28;99212.91;;;32.58;35.28
53246;BME280;39569;51.090;-1.786;2022-12-31T08:04:02;99214.78;;;32.54;34.88
53246;BME280;39569;51.090;-1.786;2022-12-31T08:06:37;99224.66;;;32.55;35.11
53246;BME280;39569;51.090;-1.786;2022-12-31T08:09:10;99230.47;;;32.50;35.12
53246;BME280;39569;51.090;-1.786;2022-12-31T08:11:46;99241.72;;;32.57;34.85
53246;BME280;39569;51.090;-1.786;2022-12-31T08:14:17;99249.13;;;32.68;34.98
53246;BME280;39569;51.090;-1.786;2022-12-31T08:16:46;99240.56;;;32.73;34.92
53246;BME280;39569;51.090;-1.786;2022-12-31T08:19:19;99251.19;;;32.87;34.45
53246;BME280;39569;51.090;-1.786;2022-12-31T08:21:57;99256.91;;;32.78;34.09
53246;BME280;39569;51.090;-1.786;2022-12-31T08:24:31;99245.38;;;32.61;34.69
53246;BME280;39569;51.090;-1.786;2022-12-31T08:27:05;99258.31;;;32.57;34.67
53246;BME280;39569;51.090;-1.786;2022-12-31T08:29:40;99248.16;;;32.61;34.83
53246;BME280;39569;51.090;-1.786;2022-12-31T08:32:16;99261.97;;;32.61;34.84
53246;BME280;39569;51.090;-1.786;2022-12-31T08:34:52;99259.03;;;32.69;35.06
53246;BME280;39569;51.090;-1.786;2022-12-31T08:37:27;99269.94;;;32.78;34.79
53246;BME280;39569;51.090;-1.786;2022-12-31T08:40:01;99269.13;;;32.77;34.52
53246;BME280;39569;51.090;-1.786;2022-12-31T08:42:38;99261.63;;;32.78;34.88
53246;BME280;39569;51.090;-1.786;2022-12-31T08:45:13;99258.16;;;32.81;35.01
53246;BME280;39569;51.090;-1.786;2022-12-31T08:47:48;99260.22;;;32.84;34.53
53246;BME280;39569;51.090;-1.786;2022-12-31T08:50:19;99263.31;;;32.82;34.83
53246;BME280;39569;51.090;-1.786;2022-12-31T08:52:47;99253.69;;;32.92;34.53
53246;BME280;39569;51.090;-1.786;2022-12-31T08:55:15;99261.41;;;32.99;34.64
53246;BME280;39569;51.090;-1.786;2022-12-31T08:57:51;99263.16;;;33.07;33.93
53246;BME280;39569;51.090;-1.786;2022-12-31T09:00:20;99260.59;;;32.98;34.35
53246;BME280;39569;51.090;-1.786;2022-12-31T09:03:08;99274.94;;;33.04;34.11
53246;BME280;39569;51.090;-1.786;2022-12-31T09:05:51;99271.75;;;33.02;34.41
53246;BME280;39569;51.090;-1.786;2022-12-31T09:08:27;99267.91;;;33.06;34.28
53246;BME280;39569;51.090;-1.786;2022-12-31T09:10:59;99266.28;;;33.05;33.83
53246;BME280;39569;51.090;-1.786;2022-12-31T09:13:37;99264.69;;;33.04;34.18
53246;BME280;39569;51.090;-1.786;2022-12-31T09:16:12;99257.97;;;33.05;34.08
53246;BME280;39569;51.090;-1.786;2022-12-31T09:18:43;99259.84;;;33.01;34.39
53246;BME280;39569;51.090;-1.786;2022-12-31T09:21:12;99268.88;;;32.98;34.07
53246;BME280;39569;51.090;-1.786;2022-12-31T09:23:40;99261.31;;;32.95;34.37
53246;BME280;39569;51.090;-1.786;2022-12-31T09:26:27;99246.84;;;32.86;34.52
53246;BME280;39569;51.090;-1.786;2022-12-31T09:29:01;99244.75;;;32.83;34.64
53246;BME280;39569;51.090;-1.786;2022-12-31T09:32:33;62679.75;;;-139.47;100.00
53246;BME280;39569;51.090;-1.786;2022-12-31T09:35:11;99244.59;;;32.76;34.38
53246;BME280;39569;51.090;-1.786;2022-12-31T09:38:43;62679.75;;;-139.47;100.00
53246;BME280;39569;51.090;-1.786;2022-12-31T09:42:33;62679.75;;;-139.47;100.00
53246;BME280;39569;51.090;-1.786;2022-12-31T09:46:23;62679.75;;;-139.47;100.00
53246;BME280;39569;51.090;-1.786;2022-12-31T09:50:21;62679.75;;;-139.47;100.00
53246;BME280;39569;51.090;-1.786;2022-12-31T09:54:25;62679.75;;;-139.47;100.00
53246;BME280;39569;51.090;-1.786;2022-12-31T09:58:05;62679.75;;;-139.47;100.00
53246;BME280;39569;51.090;-1.786;2022-12-31T10:01:42;62679.75;;;-139.47;100.00
53246;BME280;39569;51.090;-1.786;2022-12-31T10:05:41;62679.75;;;-139.47;100.00
53246;BME280;39569;51.090;-1.786;2022-12-31T10:09:20;62679.75;;;-139.47;100.00
53246;BME280;39569;51.090;-1.786;2022-12-31T10:13:07;62679.75;;;-139.47;100.00
53246;BME280;39569;51.090;-1.786;2022-12-31T10:20:56;62679.75;;;-139.47;100.00
53246;BME280;39569;51.090;-1.786;2022-12-31T10:24:43;62679.75;;;-139.47;100.00
53246;BME280;39569;51.090;-1.786;2022-12-31T10:28:21;62679.75;;;-139.47;100.00
53246;BME280;39569;51.090;-1.786;2022-12-31T10:32:00;62679.75;;;-139.47;100.00
53246;BME280;39569;51.090;-1.786;2022-12-31T10:35:42;62679.75;;;-139.47;100.00
53246;BME280;39569;51.090;-1.786;2022-12-31T10:39:23;62679.75;;;-139.47;100.00
53246;BME280;39569;51.090;-1.786;2022-12-31T10:43:25;62679.75;;;-139.47;100.00
53246;BME280;39569;51.090;-1.786;2022-12-31T10:51:21;62679.75;;;-139.47;100.00
53246;BME280;39569;51.090;-1.786;2022-12-31T10:55:29;62679.75;;;-139.47;100.00
53246;BME280;39569;51.090;-1.786;2022-12-31T10:59:16;62679.75;;;-139.47;100.00
53246;BME280;39569;51.090;-1.786;2022-12-31T11:07:26;62679.75;;;-139.47;100.00
53246;BME280;39569;51.090;-1.786;2022-12-31T11:11:19;62679.75;;;-139.47;100.00
53246;BME280;39569;51.090;-1.786;2022-12-31T11:15:14;62679.75;;;-139.47;100.00
53246;BME280;39569;51.090;-1.786;2022-12-31T11:18:50;62679.75;;;-139.47;100.00
53246;BME280;39569;51.090;-1.786;2022-12-31T11:22:28;62679.75;;;-139.47;100.00
53246;BME280;39569;51.090;-1.786;2022-12-31T11:25:28;99244.59;;;32.76;34.38
53246;BME280;39569;51.090;-1.786;2022-12-31T11:28:15;99245.84;;;32.94;33.32
53246;BME280;39569;51.090;-1.786;2022-12-31T11:30:59;99243.78;;;32.91;33.19
53246;BME280;39569;51.090;-1.786;2022-12-31T11:33:36;99246.09;;;32.89;33.68
53246;BME280;39569;51.090;-1.786;2022-12-31T11:36:16;99247.00;;;32.93;33.20
53246;BME280;39569;51.090;-1.786;2022-12-31T11:38:49;99236.91;;;32.85;33.98
53246;BME280;39569;51.090;-1.786;2022-12-31T11:41:22;99223.44;;;32.83;33.77
53246;BME280;39569;51.090;-1.786;2022-12-31T11:44:01;99231.38;;;32.69;34.25
53246;BME280;39569;51.090;-1.786;2022-12-31T11:46:52;99217.38;;;32.62;34.41
53246;BME280;39569;51.090;-1.786;2022-12-31T11:49:38;99215.13;;;32.68;34.01
53246;BME280;39569;51.090;-1.786;2022-12-31T11:52:26;99204.72;;;32.61;33.74
53246;BME280;39569;51.090;-1.786;2022-12-31T11:55:08;99203.44;;;32.59;34.04
53246;BME280;39569;51.090;-1.786;2022-12-31T11:57:44;99203.63;;;32.66;33.51
53246;BME280;39569;51.090;-1.786;2022-12-31T12:00:16;99203.16;;;32.64;33.63
53246;BME280;39569;51.090;-1.786;2022-12-31T12:03:44;62679.75;;;-139.47;100.00
53246;BME280;39569;51.090;-1.786;2022-12-31T12:07:12;62679.75;;;-139.47;100.00
53246;BME280;39569;51.090;-1.786;2022-12-31T12:10:40;62679.75;;;-139.47;100.00
53246;BME280;39569;51.090;-1.786;2022-12-31T12:14:19;62679.75;;;-139.47;100.00
53246;BME280;39569;51.090;-1.786;2022-12-31T12:17:53;62679.75;;;-139.47;100.00
53246;BME280;39569;51.090;-1.786;2022-12-31T12:21:25;62679.75;;;-139.47;100.00
53246;BME280;39569;51.090;-1.786;2022-12-31T12:24:52;62679.75;;;-139.47;100.00
53246;BME280;39569;51.090;-1.786;2022-12-31T12:28:20;62679.75;;;-139.47;100.00
53246;BME280;39569;51.090;-1.786;2022-12-31T12:31:55;62679.75;;;-139.47;100.00
53246;BME280;39569;51.090;-1.786;2022-12-31T12:35:24;62679.75;;;-139.47;100.00
53246;BME280;39569;51.090;-1.786;2022-12-31T12:39:01;62679.75;;;-139.47;100.00
53246;BME280;39569;51.090;-1.786;2022-12-31T12:42:27;62679.75;;;-139.47;100.00
53246;BME280;39569;51.090;-1.786;2022-12-31T12:45:02;99146.72;;;32.65;33.56
53246;BME280;39569;51.090;-1.786;2022-12-31T12:47:32;99141.38;;;32.56;33.32
53246;BME280;39569;51.090;-1.786;2022-12-31T12:49:59;99144.22;;;32.44;33.68
53246;BME280;39569;51.090;-1.786;2022-12-31T12:55:24;99140.16;;;32.42;33.47
53246;BME280;39569;51.090;-1.786;2022-12-31T12:58:00;99141.88;;;32.31;33.80
53246;BME280;39569;51.090;-1.786;2022-12-31T13:00:32;99133.13;;;32.29;33.77
53246;BME280;39569;51.090;-1.786;2022-12-31T13:03:22;99136.09;;;32.36;34.13
53246;BME280;39569;51.090;-1.786;2022-12-31T13:06:07;99118.53;;;32.28;33.59
53246;BME280;39569;51.090;-1.786;2022-12-31T13:08:50;99134.75;;;32.30;33.75
53246;BME280;39569;51.090;-1.786;2022-12-31T13:11:29;99121.28;;;32.28;33.61
53246;BME280;39569;51.090;-1.786;2022-12-31T13:14:03;99125.38;;;32.34;33.21
53246;BME280;39569;51.090;-1.786;2022-12-31T13:16:36;99119.50;;;32.36;33.78
53246;BME280;39569;51.090;-1.786;2022-12-31T13:19:14;99121.28;;;32.28;33.82
53246;BME280;39569;51.090;-1.786;2022-12-31T13:21:49;99098.00;;;32.29;34.03
53246;BME280;39569;51.090;-1.786;2022-12-31T13:24:28;99095.16;;;32.26;33.82
53246;BME280;39569;51.090;-1.786;2022-12-31T13:27:05;99096.84;;;32.30;34.02
53246;BME280;39569;51.090;-1.786;2022-12-31T13:29:34;99084.91;;;32.26;33.92
53246;BME280;39569;51.090;-1.786;2022-12-31T13:32:04;99085.50;;;32.35;33.37
53246;BME280;39569;51.090;-1.786;2022-12-31T13:34:37;99084.44;;;32.40;34.07
53246;BME280;39569;51.090;-1.786;2022-12-31T13:37:16;99089.63;;;32.41;33.47
53246;BME280;39569;51.090;-1.786;2022-12-31T13:39:55;99082.25;;;32.45;33.81
53246;BME280;39569;51.090;-1.786;2022-12-31T13:42:26;99080.34;;;32.49;33.72
53246;BME280;39569;51.090;-1.786;2022-12-31T13:44:58;99071.59;;;32.47;33.68
53246;BME280;39569;51.090;-1.786;2022-12-31T13:47:29;99060.72;;;32.54;33.05
53246;BME280;39569;51.090;-1.786;2022-12-31T13:50:02;99072.94;;;32.53;33.27
53246;BME280;39569;51.090;-1.786;2022-12-31T13:52:39;99074.13;;;32.52;33.31
53246;BME280;39569;51.090;-1.786;2022-12-31T13:55:11;99081.69;;;32.55;33.30
53246;BME280;39569;51.090;-1.786;2022-12-31T13:57:42;99077.31;;;32.54;33.40
53246;BME280;39569;51.090;-1.786;2022-12-31T14:00:18;99081.25;;;32.53;33.04
53246;BME280;39569;51.090;-1.786;2022-12-31T14:02:46;99095.06;;;32.53;33.08
53246;BME280;39569;51.090;-1.786;2022-12-31T14:05:23;99071.59;;;32.47;33.90
53246;BME280;39569;51.090;-1.786;2022-12-31T14:07:54;99097.84;;;32.38;34.02
53246;BME280;39569;51.090;-1.786;2022-12-31T14:10:29;99084.00;;;32.38;33.65